Timeline UpdatesTrip UpdatesNews PostsPvt Posts♥♥Travel TipsAdmin PostsConv PostsFollowed PostsChat RequestsBlog PostsPNR Posts

Disclaimer
Search
 
 
Wed Nov 26, 2014 10:53:47 ISTHomeTrainsΣChainsAtlasPNRForumGalleryNewsFAQTripsMembersLoginFeedback
No Recent News for this Train
Other Trains in the News **new
Latest...
Renumbered as 22647 and arrival time at TVC changed to 17.15 wef 16/7/14
Mon Jun 30, 2014 (11:17AM)
⇐ Return Journey: Train# 22648

16327⇒22647/Korba - Trivandram Central SF Express

Time-Table HAS CHANGED.
Sep 02 2014 (12:04AM)
Change Departure Station:
Change Arrival Station:
Post a Train Travel TipPost a Train Travel Tip **new
Post a Comment/Question/Picture/VideoPost a Comment/Question/Picture/Video
Pantry/Catering
✓ Pantry Car Avbl
✓ Catering Avbl
Loco/Rake Reversals
MAS/Chennai Central (12); SRR/Shoranur Junction (7);
RSA - Rake Sharing
22641/22642)<-->(22645/22646)<-->(22647/22648) <--> (12643/2644) ; Entry# 1149704
Rake/Coach Composition
Loco ,SLR, UR, UR, B2, B1,A1, S11, S10, S9-S8, S7,PC, S6, S5, S4, S3, S2, S1, UR, UR, SLR; SLR-2;UR-4;SL-11;3AC-2;2AC-1;
Loco
#WAP 4 ED Shed ,Author-Avinash Raj Trip #1438
News    PNR    Forum    Time-Table    Availability    Fare Chart    Map    Arr/Dep History    Trips    Gallery    ΣChains    X/O    Timeline    
Travel Time: 0h 45m    0 halts    Distance: 50 km    Avg Speed: 66 km/hr
Type: SuperFast
Zone: SR/Southern
Departs @ 06:50
Platform# 1
 M   F 
Tiruppur/TUP 
Arrives @ 07:35
Platform# 2
 M   F 
Coimbatore Main Junction/CBE 

0 halts. 7 intermediate Stations between Tiruppur and Coimbatore Main Junction

Show ALL intermediate Stations  Show Old Time-Table

#TrkCodeStation NameX/OArrivesAvgDepartsAvgHaltPFDay#KmSpeedElevZoneAddress
1/==/KRBAKorba (3)  -19:40-21-2037.960293mSECRKorba, Chhattisgarh
2/==/CPHChampa Junction (3)X  20:17-20:19-2m--1-2001.072264mSECRNational Highway 200 (07819-245767), Chhattisgarh
3/==/NIANaila (3)  20:31 20:28-20:33 20:30-2m--1-1990.160273mSECRJanjgir, Chhattisgarh
4/==/AKTAkaltara (4)  20:45-20:47-2m--1-1975.243284mSECRDist. Janjgir Champa, Chhattisgarh
5/==/BSPBilaspur Junction (8)X  21:25-21:35-10m31-1948.077271mSECRBilaspur, Chhattisgarh
6/==/BYTBhatapara (4)  22:11-22:13-2m--1-1901.868270mSECRBanjari Road, Chhattisgarh
7/==/RRaipur Junction (6)O  23:10-23:15-5m21-1837.540297mSECRRaipur, Chhattisgarh
8/==/DURGDurg Junction (6)  00:10-00:30-20m12-1800.687299mSECRPh: 91-788-2322059, Chhattisgarh
9/==/RJNRaj Nandgaon (3)  00:51-00:53-2m22-1770.186313mSECRRajnandgaon, Chhattisgarh
10/==/DGGDongargarh (2)  01:15-01:17-2m--2-1738.667 SECRDongargarh, Chhattisgarh
11/==/GGondia Junction (7)  02:23-02:25-2m--2-1665.396316mSECRGondia 441601, Maharashtra
12/==/TMRTumsar Road (5)X  02:56-02:58-2m--2-1615.772267mSECRDistt. Bhandara, Maharashtra
13/==/BRDBhandara Road (3)  03:13-03:15-2m--2-1597.747266mSECRState Highway 252 Bhandara District, Maharashtra
14/==/NGPNagpur Junction (8)X  04:35-04:45-10m--2-1535.478314mCRNagpur 440001, Maharashtra
15/==/SEGMSewagram Junction (5)  05:44-05:45-1m--2-1459.269279mCRWardha, Maharashtra
16/==/HGTHinganghat (3)X  06:14-06:15-1m--2-1426.180228mCRHinganghat, Maharashtra
17/==/CDChandrapur Maharashtra (3)O  07:19-07:22-3m--2-1340.719194mCRChandrapur 442401, Maharashtra
18/==/BPQBalharshah Junction (5)XO  08:05-08:45-40m--2-1326.9105188mCRBallarpur. Ph : 07172 - 240341, Maharashtra
19/==/SKZRSirpur Kaghaznagar (3)X  09:25-09:26-1m22-1257.162181mSCRAdilabad Dist., Telangana
20/==/BPABellampalli (3)  10:03-10:04-1m22-1218.779205mSCRTel:.08735 223298, Telangana
21/==/MCIManchiryal (3)  10:19-10:20-1m22-1198.892159mSCRAdilabad Dist., Telangana
22/==/RDMRamagundam (3)X  10:29-10:30-1m22-1185.165170mSCRKarimnagar Dist. Ph : 08728 - 255237, Telangana
23/==/WLWarangal (3)  12:03-12:05-2m12-1083.971271mSCRWarangal., Telangana
24/==/KMTKhammam (2)X  13:36-13:37-1m12-976.345118mSCRKhammam 507001, Telangana
25/==/BZAVijayawada Junction (10)X  15:50-16:05-15m52-876.06524mSCRVijayawada 520001, Andhra Pradesh
26/==/TELTenali Junction (5)  16:34-16:35-1m32-844.78016mSCRTel: 08644-227834, Andhra Pradesh
27/==/CLXChirala (4)O  17:18-17:19-1m--2-787.1678mSCRChirala, Andhra Pradesh
28/==/OGLOngole (3)O  18:03-18:04-1m32-737.79312mSCROngole, Andhra Pradesh
29/==/NLRNellore (4)XO  19:19-19:20-1m32-620.92521mSCRNellore, Andhra Pradesh
30/==/GDRGudur Junction (3)  20:53-20:55-2m12-582.55719mSCRGudur, Andhra Pradesh
31/==/MASChennai Central (12)X23:20-23:45-25m62-445.1659mSRChennai 600003, Tamil Nadu
32/==/KPDKatpadi Junction (5)X  01:45-01:50-5m13-315.765213mSRVellore 632007, Tamil Nadu
33/==/JTJJolarpettai Junction (5)  03:08-03:10-2m--3-231.876405mSRJolarpettai, Tamil Nadu
34/==/SASalem Junction (6)X  04:40 04:45-04:45 04:50-5m--3-111.649283mSRSalem, Tamil Nadu
35/==/EDErode Junction (4)  06:00 06:05-06:10 06:15-10m23-50.291175mSRErode ph.no: 0424-2256111, Tamil Nadu
36/==/TUPTiruppur (2)»X  06:48-06:50-2m130.067305mSRTiruppur. Ph:0421-2200450, Tamil Nadu
37/==/CBECoimbatore Main Junction (6)•  07:35-07:40-5m2350.541416mSRCoimbatore 641001, Tamil Nadu
38/==/PGTPalakkad Junction (4)XO  09:00-09:05-5m--3105.810684mSRPalghat Tel: 0491 2555231, Kerala
39/==/OTPOttappalam (2)  09:23-09:25-2m--3137.51730mSROttapalam, Kerala
40/==/SRRShoranur Junction (7)10:10-10:20-10m--3150.44726mSRShoranur ph.no 0466-2222913, Kerala
41/==/WKIWadakkanchery (2)X  10:41-10:42-1m13166.95540mSRWadackanchery, Kerala
42/==/TCRThrissur (4)  11:00-11:03-3m13183.3686mSRThrissur Tel: 0487 2423150, Kerala
43/==/IJKIrinjalakkuda (2)  11:24-11:25-1m--3207.15518mSRKalletumkara, Kerala
44/==/CKIChalakkudy (3)  11:32-11:33-1m13213.5659mSRPh: 0480- 2701368, Kerala
45/==/AFKAngamaly for Kalady (3)  11:47-11:48-1m--3228.74616mSRPhone: 0484-2452340, Kerala
46/==/AWYAluva (3)X  12:00-12:02-2m13237.93112mSRPh: 0484-2624141, Kerala
47/==/ERNErnakulam Town (North) (2)  12:35-12:40-5m23254.8349mSRTel: 0484 2395198, Kerala
48/==/TRTRThrippunithura (2)  12:57-12:58-1m--3264.4535mSRErnakulam, Kerala
49%==%KTYMKottayam (3)X  13:55-14:00-5m--3314.76415mSRTel: 0481 2563535, Kerala
50%==%TRVLTiruvalla (2)  14:24-14:26-2m--3340.46827mSRPh: 0469-2601314, Kerala
51/==%CNGRChengannur (3)X  14:34-14:36-2m13349.5756mSRPh: 0479-2452340, Kerala
52/==/MVLKMavelikara (3)X  14:46-14:48-2m13362.05813mSRMavelikkara Ph: 0479-2302249, Kerala
53/==/KYJKayamkulam Junction (5)  14:56-14:58-2m--3369.75211mSRAlappuzha Ph;0479-2442042, Kerala
54/==/QLNKollam Junction (6)X  15:45-15:50-5m13410.54616mSRKollam 0474-2746194, Kerala
55/==/TVCTrivandrum Central (5)  17:15--13475.1-12mSRThiruvananthapuram 695001, Kerala
Scroll to Top
Scroll to Bottom